sensor_id;sensor_type;location;lat;lon;timestamp;pressure;altitude;pressure_sealevel;temperature;humidity
47522;BME280;32291;52.010;4.446;2023-04-20T00:00:57;79810.09;;;-144.67;53.74
47522;BME280;32291;52.010;4.446;2023-04-20T00:01:59;79812.25;;;-144.67;53.42
47522;BME280;32291;52.010;4.446;2023-04-20T00:03:03;79805.81;;;-144.67;53.29
47522;BME280;32291;52.010;4.446;2023-04-20T00:04:04;79816.53;;;-144.67;53.32
47522;BME280;32291;52.010;4.446;2023-04-20T00:05:07;79810.09;;;-144.67;53.26
47522;BME280;32291;52.010;4.446;2023-04-20T00:06:10;79807.97;;;-144.67;53.81
47522;BME280;32291;52.010;4.446;2023-04-20T00:07:12;79807.97;;;-144.67;53.36
47522;BME280;32291;52.010;4.446;2023-04-20T00:08:17;79816.53;;;-144.67;53.66
47522;BME280;32291;52.010;4.446;2023-04-20T00:09:19;79820.81;;;-144.67;53.65
47522;BME280;32291;52.010;4.446;2023-04-20T00:10:21;79820.81;;;-144.67;54.02
47522;BME280;32291;52.010;4.446;2023-04-20T00:11:23;79816.53;;;-144.67;53.95
47522;BME280;32291;52.010;4.446;2023-04-20T00:12:24;79818.66;;;-144.67;54.01
47522;BME280;32291;52.010;4.446;2023-04-20T00:13:26;79822.97;;;-144.67;54.10
47522;BME280;32291;52.010;4.446;2023-04-20T00:14:27;79816.53;;;-144.67;53.94
47522;BME280;32291;52.010;4.446;2023-04-20T00:15:29;79825.09;;;-144.67;54.12
47522;BME280;32291;52.010;4.446;2023-04-20T00:16:32;79820.81;;;-144.67;54.42
47522;BME280;32291;52.010;4.446;2023-04-20T00:17:33;79829.38;;;-144.67;54.05
47522;BME280;32291;52.010;4.446;2023-04-20T00:18:35;79825.09;;;-144.67;54.07
47522;BME280;32291;52.010;4.446;2023-04-20T00:19:36;79825.09;;;-144.67;53.91
47522;BME280;32291;52.010;4.446;2023-04-20T00:20:38;79818.66;;;-144.67;53.94
47522;BME280;32291;52.010;4.446;2023-04-20T00:21:40;79820.81;;;-144.67;54.12
47522;BME280;32291;52.010;4.446;2023-04-20T00:22:42;79816.53;;;-144.67;54.42
47522;BME280;32291;52.010;4.446;2023-04-20T00:23:44;79827.25;;;-144.67;54.38
47522;BME280;32291;52.010;4.446;2023-04-20T00:24:46;79825.09;;;-144.67;54.30
47522;BME280;32291;52.010;4.446;2023-04-20T00:25:48;79820.81;;;-144.67;54.12
47522;BME280;32291;52.010;4.446;2023-04-20T00:26:52;79818.66;;;-144.67;54.02
47522;BME280;32291;52.010;4.446;2023-04-20T00:27:56;79816.53;;;-144.67;53.91
47522;BME280;32291;52.010;4.446;2023-04-20T00:29:00;79812.25;;;-144.67;54.11
47522;BME280;32291;52.010;4.446;2023-04-20T00:30:02;79816.53;;;-144.67;54.17
47522;BME280;32291;52.010;4.446;2023-04-20T00:31:05;79816.53;;;-144.67;54.14
47522;BME280;32291;52.010;4.446;2023-04-20T00:32:06;79816.53;;;-144.67;54.31
47522;BME280;32291;52.010;4.446;2023-04-20T00:33:08;79816.53;;;-144.67;54.53
47522;BME280;32291;52.010;4.446;2023-04-20T00:34:10;79827.25;;;-144.67;54.72
47522;BME280;32291;52.010;4.446;2023-04-20T00:35:12;79829.38;;;-144.67;54.36
47522;BME280;32291;52.010;4.446;2023-04-20T00:36:13;79820.81;;;-144.67;54.51
47522;BME280;32291;52.010;4.446;2023-04-20T00:37:15;79825.09;;;-144.67;54.50
47522;BME280;32291;52.010;4.446;2023-04-20T00:38:16;79831.53;;;-144.67;54.59
47522;BME280;32291;52.010;4.446;2023-04-20T00:39:18;79827.25;;;-144.67;54.98
47522;BME280;32291;52.010;4.446;2023-04-20T00:40:20;79844.38;;;-144.67;55.01
47522;BME280;32291;52.010;4.446;2023-04-20T00:41:22;79842.22;;;-144.67;55.18
47522;BME280;32291;52.010;4.446;2023-04-20T00:42:24;79837.94;;;-144.67;55.18
47522;BME280;32291;52.010;4.446;2023-04-20T00:43:26;79846.53;;;-144.67;55.07
47522;BME280;32291;52.010;4.446;2023-04-20T00:44:28;79842.22;;;-144.67;55.29
47522;BME280;32291;52.010;4.446;2023-04-20T00:45:29;79850.81;;;-144.67;55.62
47522;BME280;32291;52.010;4.446;2023-04-20T00:46:31;79855.09;;;-144.67;55.84
47522;BME280;32291;52.010;4.446;2023-04-20T00:47:32;79850.81;;;-144.67;56.00
47522;BME280;32291;52.010;4.446;2023-04-20T00:48:34;79855.09;;;-144.67;55.75
47522;BME280;32291;52.010;4.446;2023-04-20T00:49:36;79859.38;;;-144.67;56.09
47522;BME280;32291;52.010;4.446;2023-04-20T00:50:39;79867.94;;;-144.67;56.24
47522;BME280;32291;52.010;4.446;2023-04-20T00:51:41;79863.66;;;-144.67;56.75
47522;BME280;32291;52.010;4.446;2023-04-20T00:52:43;79863.66;;;-144.67;56.74
47522;BME280;32291;52.010;4.446;2023-04-20T00:53:45;79863.66;;;-144.67;56.73
47522;BME280;32291;52.010;4.446;2023-04-20T00:54:48;79859.38;;;-144.67;56.75
47522;BME280;32291;52.010;4.446;2023-04-20T00:55:49;79857.22;;;-144.67;56.64
47522;BME280;32291;52.010;4.446;2023-04-20T00:56:52;79855.09;;;-144.67;56.88
47522;BME280;32291;52.010;4.446;2023-04-20T00:57:54;79855.09;;;-144.67;56.54
47522;BME280;32291;52.010;4.446;2023-04-20T00:58:55;79855.09;;;-144.67;56.61
47522;BME280;32291;52.010;4.446;2023-04-20T00:59:57;79852.94;;;-144.67;56.31
47522;BME280;32291;52.010;4.446;2023-04-20T01:00:59;79844.38;;;-144.67;55.77
47522;BME280;32291;52.010;4.446;2023-04-20T01:02:01;79844.38;;;-144.67;55.76
47522;BME280;32291;52.010;4.446;2023-04-20T01:03:04;79842.22;;;-144.67;55.64
47522;BME280;32291;52.010;4.446;2023-04-20T01:04:08;79844.38;;;-144.67;55.60
47522;BME280;32291;52.010;4.446;2023-04-20T01:05:10;79842.22;;;-144.67;55.43
47522;BME280;32291;52.010;4.446;2023-04-20T01:06:14;79837.94;;;-144.67;55.61
47522;BME280;32291;52.010;4.446;2023-04-20T01:07:17;79837.94;;;-144.67;55.41
47522;BME280;32291;52.010;4.446;2023-04-20T01:08:19;79837.94;;;-144.67;55.60
47522;BME280;32291;52.010;4.446;2023-04-20T01:09:20;79840.09;;;-144.67;54.94
47522;BME280;32291;52.010;4.446;2023-04-20T01:10:22;79837.94;;;-144.67;55.32
47522;BME280;32291;52.010;4.446;2023-04-20T01:11:23;79831.53;;;-144.67;54.84
47522;BME280;32291;52.010;4.446;2023-04-20T01:12:25;79825.09;;;-144.67;54.90
47522;BME280;32291;52.010;4.446;2023-04-20T01:13:27;79825.09;;;-144.67;54.86
47522;BME280;32291;52.010;4.446;2023-04-20T01:14:29;79822.97;;;-144.67;54.91
47522;BME280;32291;52.010;4.446;2023-04-20T01:15:31;79825.09;;;-144.67;54.61
47522;BME280;32291;52.010;4.446;2023-04-20T01:16:33;79816.53;;;-144.67;54.42
47522;BME280;32291;52.010;4.446;2023-04-20T01:17:36;79820.81;;;-144.67;54.70
47522;BME280;32291;52.010;4.446;2023-04-20T01:18:46;79827.25;;;-144.67;54.82
47522;BME280;32291;52.010;4.446;2023-04-20T01:19:49;79822.97;;;-144.67;54.96
47522;BME280;32291;52.010;4.446;2023-04-20T01:20:51;79829.38;;;-144.67;54.59
47522;BME280;32291;52.010;4.446;2023-04-20T01:21:53;79820.81;;;-144.67;54.73
47522;BME280;32291;52.010;4.446;2023-04-20T01:22:54;79820.81;;;-144.67;54.70
47522;BME280;32291;52.010;4.446;2023-04-20T01:23:57;79820.81;;;-144.67;54.65
47522;BME280;32291;52.010;4.446;2023-04-20T01:24:58;79820.81;;;-144.67;54.50
47522;BME280;32291;52.010;4.446;2023-04-20T01:26:08;79816.53;;;-144.67;54.33
47522;BME280;32291;52.010;4.446;2023-04-20T01:27:12;79818.66;;;-144.67;54.70
47522;BME280;32291;52.010;4.446;2023-04-20T01:28:13;79812.25;;;-144.67;54.54
47522;BME280;32291;52.010;4.446;2023-04-20T01:29:15;79818.66;;;-144.67;54.29
47522;BME280;32291;52.010;4.446;2023-04-20T01:30:17;79816.53;;;-144.67;54.45
47522;BME280;32291;52.010;4.446;2023-04-20T01:31:19;79816.53;;;-144.67;54.67
47522;BME280;32291;52.010;4.446;2023-04-20T01:32:21;79816.53;;;-144.67;54.93
47522;BME280;32291;52.010;4.446;2023-04-20T01:33:23;79816.53;;;-144.67;55.07
47522;BME280;32291;52.010;4.446;2023-04-20T01:34:24;79816.53;;;-144.67;55.25
47522;BME280;32291;52.010;4.446;2023-04-20T01:35:26;79816.53;;;-144.67;55.19
47522;BME280;32291;52.010;4.446;2023-04-20T01:36:28;79816.53;;;-144.67;55.26
47522;BME280;32291;52.010;4.446;2023-04-20T01:37:30;79816.53;;;-144.67;55.19
47522;BME280;32291;52.010;4.446;2023-04-20T01:38:32;79820.81;;;-144.67;55.26
47522;BME280;32291;52.010;4.446;2023-04-20T01:39:37;79812.25;;;-144.67;55.29
47522;BME280;32291;52.010;4.446;2023-04-20T01:40:39;79807.97;;;-144.67;55.24
47522;BME280;32291;52.010;4.446;2023-04-20T01:41:41;79805.81;;;-144.67;55.48
47522;BME280;32291;52.010;4.446;2023-04-20T01:42:43;79812.25;;;-144.67;55.66
47522;BME280;32291;52.010;4.446;2023-04-20T01:43:44;79807.97;;;-144.67;55.94
47522;BME280;32291;52.010;4.446;2023-04-20T01:44:46;79812.25;;;-144.67;56.25
47522;BME280;32291;52.010;4.446;2023-04-20T01:45:48;79807.97;;;-144.67;56.49
47522;BME280;32291;52.010;4.446;2023-04-20T01:46:49;79805.81;;;-144.67;56.43
47522;BME280;32291;52.010;4.446;2023-04-20T01:47:51;79812.25;;;-144.67;56.82
47522;BME280;32291;52.010;4.446;2023-04-20T01:48:53;79812.25;;;-144.67;57.13
47522;BME280;32291;52.010;4.446;2023-04-20T01:49:55;79812.25;;;-144.67;57.74
47522;BME280;32291;52.010;4.446;2023-04-20T01:50:58;79814.38;;;-144.67;57.88
47522;BME280;32291;52.010;4.446;2023-04-20T01:52:00;79825.09;;;-144.67;58.09
47522;BME280;32291;52.010;4.446;2023-04-20T01:53:02;79822.97;;;-144.67;58.65
47522;BME280;32291;52.010;4.446;2023-04-20T01:54:04;79822.97;;;-144.67;58.94
47522;BME280;32291;52.010;4.446;2023-04-20T01:55:06;79827.25;;;-144.67;59.46
47522;BME280;32291;52.010;4.446;2023-04-20T01:56:09;79837.94;;;-144.67;59.65
47522;BME280;32291;52.010;4.446;2023-04-20T01:57:11;79831.53;;;-144.67;60.56
47522;BME280;32291;52.010;4.446;2023-04-20T01:58:13;79842.22;;;-144.67;61.13
47522;BME280;32291;52.010;4.446;2023-04-20T01:59:15;79846.53;;;-144.67;61.78
47522;BME280;32291;52.010;4.446;2023-04-20T02:00:17;79842.22;;;-144.67;62.25
47522;BME280;32291;52.010;4.446;2023-04-20T02:01:19;79833.66;;;-144.67;63.10
47522;BME280;32291;52.010;4.446;2023-04-20T02:02:20;79852.94;;;-144.67;63.40
47522;BME280;32291;52.010;4.446;2023-04-20T02:03:22;79837.94;;;-144.67;63.71
47522;BME280;32291;52.010;4.446;2023-04-20T02:04:24;79848.66;;;-144.67;64.37
47522;BME280;32291;52.010;4.446;2023-04-20T02:05:26;79850.81;;;-144.67;64.63
47522;BME280;32291;52.010;4.446;2023-04-20T02:06:27;79855.09;;;-144.67;65.42
47522;BME280;32291;52.010;4.446;2023-04-20T02:07:29;79857.22;;;-144.67;65.86
47522;BME280;32291;52.010;4.446;2023-04-20T02:08:32;79859.38;;;-144.67;66.26
47522;BME280;32291;52.010;4.446;2023-04-20T02:09:34;79859.38;;;-144.67;66.79
47522;BME280;32291;52.010;4.446;2023-04-20T02:10:36;79861.50;;;-144.67;67.17
47522;BME280;32291;52.010;4.446;2023-04-20T02:11:38;79863.66;;;-144.67;67.46
47522;BME280;32291;52.010;4.446;2023-04-20T02:12:40;79865.78;;;-144.67;68.13
47522;BME280;32291;52.010;4.446;2023-04-20T02:13:42;79859.38;;;-144.67;68.81
47522;BME280;32291;52.010;4.446;2023-04-20T02:14:44;79867.94;;;-144.67;69.39
47522;BME280;32291;52.010;4.446;2023-04-20T02:15:46;79863.66;;;-144.67;69.73
47522;BME280;32291;52.010;4.446;2023-04-20T02:16:47;79867.94;;;-144.67;70.19
47522;BME280;32291;52.010;4.446;2023-04-20T02:17:49;79876.50;;;-144.67;70.95
47522;BME280;32291;52.010;4.446;2023-04-20T02:18:52;79872.22;;;-144.67;71.34
47522;BME280;32291;52.010;4.446;2023-04-20T02:19:55;79872.22;;;-144.67;72.16
47522;BME280;32291;52.010;4.446;2023-04-20T02:20:57;79872.22;;;-144.67;72.46
47522;BME280;32291;52.010;4.446;2023-04-20T02:21:59;79867.94;;;-144.67;73.13
47522;BME280;32291;52.010;4.446;2023-04-20T02:23:01;79876.50;;;-144.67;73.33
47522;BME280;32291;52.010;4.446;2023-04-20T02:24:03;79872.22;;;-144.67;73.47
47522;BME280;32291;52.010;4.446;2023-04-20T02:25:07;79876.50;;;-144.67;74.04
47522;BME280;32291;52.010;4.446;2023-04-20T02:26:10;79867.94;;;-144.67;74.59
47522;BME280;32291;52.010;4.446;2023-04-20T02:27:12;79865.78;;;-144.67;75.16
47522;BME280;32291;52.010;4.446;2023-04-20T02:28:14;79865.78;;;-144.67;75.45
47522;BME280;32291;52.010;4.446;2023-04-20T02:29:15;79859.38;;;-144.67;75.73
47522;BME280;32291;52.010;4.446;2023-04-20T02:30:17;79859.38;;;-144.67;75.85
47522;BME280;32291;52.010;4.446;2023-04-20T02:31:19;79855.09;;;-144.67;76.32
47522;BME280;32291;52.010;4.446;2023-04-20T02:32:21;79855.09;;;-144.67;76.68
47522;BME280;32291;52.010;4.446;2023-04-20T02:33:22;79852.94;;;-144.67;77.19
47522;BME280;32291;52.010;4.446;2023-04-20T02:34:24;79844.38;;;-144.67;77.76
47522;BME280;32291;52.010;4.446;2023-04-20T02:35:26;79852.94;;;-144.67;78.38
47522;BME280;32291;52.010;4.446;2023-04-20T02:36:28;79837.94;;;-144.67;79.25
47522;BME280;32291;52.010;4.446;2023-04-20T02:37:30;79842.22;;;-144.67;79.43
47522;BME280;32291;52.010;4.446;2023-04-20T02:38:32;79837.94;;;-144.67;79.91
47522;BME280;32291;52.010;4.446;2023-04-20T02:39:35;79829.38;;;-144.67;80.16
47522;BME280;32291;52.010;4.446;2023-04-20T02:40:36;79829.38;;;-144.67;80.74
47522;BME280;32291;52.010;4.446;2023-04-20T02:41:38;79820.81;;;-144.67;81.04
47522;BME280;32291;52.010;4.446;2023-04-20T02:42:40;79816.53;;;-144.67;81.52
47522;BME280;32291;52.010;4.446;2023-04-20T02:43:41;79807.97;;;-144.67;81.61
47522;BME280;32291;52.010;4.446;2023-04-20T02:44:43;79807.97;;;-144.67;82.27
47522;BME280;32291;52.010;4.446;2023-04-20T02:45:45;79807.97;;;-144.67;82.53
47522;BME280;32291;52.010;4.446;2023-04-20T02:46:46;79801.53;;;-144.67;83.10
47522;BME280;32291;52.010;4.446;2023-04-20T02:47:48;79803.69;;;-144.67;83.10
47522;BME280;32291;52.010;4.446;2023-04-20T02:48:49;79803.69;;;-144.67;83.61
47522;BME280;32291;52.010;4.446;2023-04-20T02:49:51;79799.41;;;-144.67;84.12
47522;BME280;32291;52.010;4.446;2023-04-20T02:50:56;79795.13;;;-144.67;84.12
47522;BME280;32291;52.010;4.446;2023-04-20T02:51:58;79803.69;;;-144.67;84.79
47522;BME280;32291;52.010;4.446;2023-04-20T02:53:00;79795.13;;;-144.67;84.60
47522;BME280;32291;52.010;4.446;2023-04-20T02:54:01;79786.53;;;-144.67;84.67
47522;BME280;32291;52.010;4.446;2023-04-20T02:55:04;79777.97;;;-144.67;85.00
47522;BME280;32291;52.010;4.446;2023-04-20T02:56:06;79773.69;;;-144.67;85.45
47522;BME280;32291;52.010;4.446;2023-04-20T02:57:08;79769.41;;;-144.67;85.58
47522;BME280;32291;52.010;4.446;2023-04-20T02:58:11;79760.84;;;-144.67;85.56
47522;BME280;32291;52.010;4.446;2023-04-20T02:59:13;79760.84;;;-144.67;85.63
47522;BME280;32291;52.010;4.446;2023-04-20T03:00:15;79748.00;;;-144.67;85.70
47522;BME280;32291;52.010;4.446;2023-04-20T03:01:17;79748.00;;;-144.67;85.88
47522;BME280;32291;52.010;4.446;2023-04-20T03:02:19;79743.72;;;-144.67;85.70
47522;BME280;32291;52.010;4.446;2023-04-20T03:03:21;79743.72;;;-144.67;85.67
47522;BME280;32291;52.010;4.446;2023-04-20T03:04:23;79741.56;;;-144.67;85.57
47522;BME280;32291;52.010;4.446;2023-04-20T03:05:26;79737.28;;;-144.67;85.57
47522;BME280;32291;52.010;4.446;2023-04-20T03:06:28;79735.13;;;-144.67;85.55
47522;BME280;32291;52.010;4.446;2023-04-20T03:07:30;79735.13;;;-144.67;85.55
47522;BME280;32291;52.010;4.446;2023-04-20T03:08:32;79735.13;;;-144.67;85.63
47522;BME280;32291;52.010;4.446;2023-04-20T03:09:34;79726.56;;;-144.67;85.64
47522;BME280;32291;52.010;4.446;2023-04-20T03:10:36;79726.56;;;-144.67;85.51
47522;BME280;32291;52.010;4.446;2023-04-20T03:11:38;79726.56;;;-144.67;85.63
47522;BME280;32291;52.010;4.446;2023-04-20T03:12:40;79722.28;;;-144.67;85.62
47522;BME280;32291;52.010;4.446;2023-04-20T03:13:42;79718.00;;;-144.67;85.61
47522;BME280;32291;52.010;4.446;2023-04-20T03:14:44;79711.56;;;-144.67;85.38
47522;BME280;32291;52.010;4.446;2023-04-20T03:15:46;79703.00;;;-144.67;85.19
47522;BME280;32291;52.010;4.446;2023-04-20T03:16:47;79705.16;;;-144.67;85.29
47522;BME280;32291;52.010;4.446;2023-04-20T03:17:49;79692.31;;;-144.67;85.47
47522;BME280;32291;52.010;4.446;2023-04-20T03:18:50;79688.00;;;-144.67;85.20
47522;BME280;32291;52.010;4.446;2023-04-20T03:19:52;79679.44;;;-144.67;85.03
47522;BME280;32291;52.010;4.446;2023-04-20T03:20:54;79668.75;;;-144.67;84.88
47522;BME280;32291;52.010;4.446;2023-04-20T03:21:56;79668.75;;;-144.67;84.74
47522;BME280;32291;52.010;4.446;2023-04-20T03:22:58;79658.03;;;-144.67;84.63
47522;BME280;32291;52.010;4.446;2023-04-20T03:24:00;79658.03;;;-144.67;84.69
47522;BME280;32291;52.010;4.446;2023-04-20T03:25:02;79658.03;;;-144.67;84.55
47522;BME280;32291;52.010;4.446;2023-04-20T03:26:04;79660.16;;;-144.67;84.45
47522;BME280;32291;52.010;4.446;2023-04-20T03:27:06;79658.03;;;-144.67;84.65
47522;BME280;32291;52.010;4.446;2023-04-20T03:28:08;79658.03;;;-144.67;84.79
47522;BME280;32291;52.010;4.446;2023-04-20T03:29:10;79653.75;;;-144.67;84.80
47522;BME280;32291;52.010;4.446;2023-04-20T03:30:12;79649.47;;;-144.67;84.64
47522;BME280;32291;52.010;4.446;2023-04-20T03:31:14;79655.88;;;-144.67;85.00
47522;BME280;32291;52.010;4.446;2023-04-20T03:32:15;79658.03;;;-144.67;85.36
47522;BME280;32291;52.010;4.446;2023-04-20T03:33:17;79655.88;;;-144.67;85.46
47522;BME280;32291;52.010;4.446;2023-04-20T03:34:19;79655.88;;;-144.67;85.44
47522;BME280;32291;52.010;4.446;2023-04-20T03:35:20;79649.47;;;-144.67;85.56
47522;BME280;32291;52.010;4.446;2023-04-20T03:36:22;79651.59;;;-144.67;85.57
47522;BME280;32291;52.010;4.446;2023-04-20T03:37:23;79658.03;;;-144.67;85.87
47522;BME280;32291;52.010;4.446;2023-04-20T03:38:25;79653.75;;;-144.67;85.95
47522;BME280;32291;52.010;4.446;2023-04-20T03:39:27;79640.91;;;-144.67;86.21
47522;BME280;32291;52.010;4.446;2023-04-20T03:40:29;79643.03;;;-144.67;86.17
47522;BME280;32291;52.010;4.446;2023-04-20T03:41:31;79645.19;;;-144.67;86.45
47522;BME280;32291;52.010;4.446;2023-04-20T03:42:32;79630.19;;;-144.67;86.37
47522;BME280;32291;52.010;4.446;2023-04-20T03:43:34;79623.75;;;-144.67;86.61
47522;BME280;32291;52.010;4.446;2023-04-20T03:44:36;79615.19;;;-144.67;86.45
47522;BME280;32291;52.010;4.446;2023-04-20T03:45:38;79610.91;;;-144.67;86.40
47522;BME280;32291;52.010;4.446;2023-04-20T03:46:39;79602.34;;;-144.67;86.31
47522;BME280;32291;52.010;4.446;2023-04-20T03:47:41;79593.78;;;-144.67;86.12
47522;BME280;32291;52.010;4.446;2023-04-20T03:48:43;79589.50;;;-144.67;86.14
47522;BME280;32291;52.010;4.446;2023-04-20T03:49:44;79580.94;;;-144.67;85.96
47522;BME280;32291;52.010;4.446;2023-04-20T03:50:46;79583.06;;;-144.67;85.94
47522;BME280;32291;52.010;4.446;2023-04-20T03:51:48;79568.06;;;-144.67;85.88
47522;BME280;32291;52.010;4.446;2023-04-20T03:52:50;79559.50;;;-144.67;85.85
47522;BME280;32291;52.010;4.446;2023-04-20T03:53:51;79563.78;;;-144.67;85.80
47522;BME280;32291;52.010;4.446;2023-04-20T03:54:53;79565.94;;;-144.67;85.85
47522;BME280;32291;52.010;4.446;2023-04-20T03:55:55;79559.50;;;-144.67;85.73
47522;BME280;32291;52.010;4.446;2023-04-20T03:56:57;79550.94;;;-144.67;85.90
47522;BME280;32291;52.010;4.446;2023-04-20T03:57:59;79544.53;;;-144.67;85.80
47522;BME280;32291;52.010;4.446;2023-04-20T03:59:01;79538.09;;;-144.67;85.93
47522;BME280;32291;52.010;4.446;2023-04-20T04:00:03;79538.09;;;-144.67;85.87
47522;BME280;32291;52.010;4.446;2023-04-20T04:01:06;79533.81;;;-144.67;85.85
47522;BME280;32291;52.010;4.446;2023-04-20T04:02:11;79538.09;;;-144.67;86.03
47522;BME280;32291;52.010;4.446;2023-04-20T04:03:13;79529.53;;;-144.67;85.69
47522;BME280;32291;52.010;4.446;2023-04-20T04:04:15;79520.97;;;-144.67;85.63
47522;BME280;32291;52.010;4.446;2023-04-20T04:05:17;79520.97;;;-144.67;85.46
47522;BME280;32291;52.010;4.446;2023-04-20T04:06:19;79505.97;;;-144.67;85.34
47522;BME280;32291;52.010;4.446;2023-04-20T04:07:21;79503.81;;;-144.67;85.22
47522;BME280;32291;52.010;4.446;2023-04-20T04:08:23;79503.81;;;-144.67;85.08
47522;BME280;32291;52.010;4.446;2023-04-20T04:09:25;79508.09;;;-144.67;85.10
47522;BME280;32291;52.010;4.446;2023-04-20T04:10:27;79503.81;;;-144.67;85.24
47522;BME280;32291;52.010;4.446;2023-04-20T04:11:28;79508.09;;;-144.67;85.14
47522;BME280;32291;52.010;4.446;2023-04-20T04:12:30;79508.09;;;-144.67;85.20
47522;BME280;32291;52.010;4.446;2023-04-20T04:13:32;79503.81;;;-144.67;85.13
47522;BME280;32291;52.010;4.446;2023-04-20T04:14:34;79497.41;;;-144.67;84.86
47522;BME280;32291;52.010;4.446;2023-04-20T04:15:36;79490.97;;;-144.67;84.79
47522;BME280;32291;52.010;4.446;2023-04-20T04:16:38;79495.25;;;-144.67;84.84
47522;BME280;32291;52.010;4.446;2023-04-20T04:17:40;79493.13;;;-144.67;84.73
47522;BME280;32291;52.010;4.446;2023-04-20T04:18:46;79490.97;;;-144.67;84.76
47522;BME280;32291;52.010;4.446;2023-04-20T04:19:47;79488.84;;;-144.67;84.53
47522;BME280;32291;52.010;4.446;2023-04-20T04:20:49;79482.41;;;-144.67;84.39
47522;BME280;32291;52.010;4.446;2023-04-20T04:21:52;79478.13;;;-144.67;84.40
47522;BME280;32291;52.010;4.446;2023-04-20T04:22:54;79478.13;;;-144.67;84.17
47522;BME280;32291;52.010;4.446;2023-04-20T04:23:56;79482.41;;;-144.67;84.11
47522;BME280;32291;52.010;4.446;2023-04-20T04:24:58;79473.84;;;-144.67;83.88
47522;BME280;32291;52.010;4.446;2023-04-20T04:26:00;79469.56;;;-144.67;83.97
47522;BME280;32291;52.010;4.446;2023-04-20T04:27:03;79463.13;;;-144.67;84.10
47522;BME280;32291;52.010;4.446;2023-04-20T04:28:08;79469.56;;;-144.67;84.02
47522;BME280;32291;52.010;4.446;2023-04-20T04:29:10;79473.84;;;-144.67;84.15
47522;BME280;32291;52.010;4.446;2023-04-20T04:30:12;79465.28;;;-144.67;84.04
47522;BME280;32291;52.010;4.446;2023-04-20T04:31:14;79465.28;;;-144.67;83.72
47522;BME280;32291;52.010;4.446;2023-04-20T04:32:17;79461.00;;;-144.67;83.69
47522;BME280;32291;52.010;4.446;2023-04-20T04:33:19;79463.13;;;-144.67;83.33
47522;BME280;32291;52.010;4.446;2023-04-20T04:34:22;79461.00;;;-144.67;83.70
47522;BME280;32291;52.010;4.446;2023-04-20T04:35:25;79458.84;;;-144.67;83.45
47522;BME280;32291;52.010;4.446;2023-04-20T04:36:27;79461.00;;;-144.67;83.63
47522;BME280;32291;52.010;4.446;2023-04-20T04:37:29;79452.41;;;-144.67;83.43
47522;BME280;32291;52.010;4.446;2023-04-20T04:38:31;79450.28;;;-144.67;83.25
47522;BME280;32291;52.010;4.446;2023-04-20T04:39:34;79446.00;;;-144.67;83.32
47522;BME280;32291;52.010;4.446;2023-04-20T04:40:35;79443.84;;;-144.67;83.13
47522;BME280;32291;52.010;4.446;2023-04-20T04:41:38;79435.28;;;-144.67;82.84
47522;BME280;32291;52.010;4.446;2023-04-20T04:42:39;79437.44;;;-144.67;82.80
47522;BME280;32291;52.010;4.446;2023-04-20T04:43:41;79435.28;;;-144.67;82.79
47522;BME280;32291;52.010;4.446;2023-04-20T04:44:43;79431.00;;;-144.67;82.89
47522;BME280;32291;52.010;4.446;2023-04-20T04:45:45;79435.28;;;-144.67;82.92
47522;BME280;32291;52.010;4.446;2023-04-20T04:46:47;79422.44;;;-144.67;82.82
47522;BME280;32291;52.010;4.446;2023-04-20T04:47:49;79426.72;;;-144.67;82.73
47522;BME280;32291;52.010;4.446;2023-04-20T04:48:54;79420.28;;;-144.67;83.02
47522;BME280;32291;52.010;4.446;2023-04-20T04:49:56;79418.16;;;-144.67;82.78
47522;BME280;32291;52.010;4.446;2023-04-20T04:50:59;79416.00;;;-144.67;82.86
47522;BME280;32291;52.010;4.446;2023-04-20T04:52:01;79409.59;;;-144.67;82.77
47522;BME280;32291;52.010;4.446;2023-04-20T04:53:03;79413.88;;;-144.67;82.80
47522;BME280;32291;52.010;4.446;2023-04-20T04:54:05;79409.59;;;-144.67;83.19
47522;BME280;32291;52.010;4.446;2023-04-20T04:55:07;79411.72;;;-144.67;83.20
47522;BME280;32291;52.010;4.446;2023-04-20T04:56:10;79405.31;;;-144.67;83.23
47522;BME280;32291;52.010;4.446;2023-04-20T04:57:12;79396.75;;;-144.67;83.32
47522;BME280;32291;52.010;4.446;2023-04-20T04:58:15;79392.44;;;-144.67;83.30
47522;BME280;32291;52.010;4.446;2023-04-20T04:59:17;79398.88;;;-144.67;83.36
47522;BME280;32291;52.010;4.446;2023-04-20T05:00:18;79394.59;;;-144.67;83.37
47522;BME280;32291;52.010;4.446;2023-04-20T05:01:20;79392.44;;;-144.67;83.23
47522;BME280;32291;52.010;4.446;2023-04-20T05:02:22;79392.44;;;-144.67;83.40
47522;BME280;32291;52.010;4.446;2023-04-20T05:03:24;79383.88;;;-144.67;83.17
47522;BME280;32291;52.010;4.446;2023-04-20T05:04:26;79388.16;;;-144.67;83.56
47522;BME280;32291;52.010;4.446;2023-04-20T05:05:28;79383.88;;;-144.67;83.99
47522;BME280;32291;52.010;4.446;2023-04-20T05:06:31;79386.03;;;-144.67;83.76
47522;BME280;32291;52.010;4.446;2023-04-20T05:07:33;79381.75;;;-144.67;83.95
47522;BME280;32291;52.010;4.446;2023-04-20T05:08:34;79375.31;;;-144.67;83.50
47522;BME280;32291;52.010;4.446;2023-04-20T05:09:36;79368.91;;;-144.67;83.60
47522;BME280;32291;52.010;4.446;2023-04-20T05:10:38;79375.31;;;-144.67;83.70
47522;BME280;32291;52.010;4.446;2023-04-20T05:11:40;79375.31;;;-144.67;83.59
47522;BME280;32291;52.010;4.446;2023-04-20T05:12:42;79373.19;;;-144.67;83.79
47522;BME280;32291;52.010;4.446;2023-04-20T05:13:45;79371.03;;;-144.67;83.78
47522;BME280;32291;52.010;4.446;2023-04-20T05:14:47;79362.47;;;-144.67;83.58
47522;BME280;32291;52.010;4.446;2023-04-20T05:15:49;79366.75;;;-144.67;83.70
47522;BME280;32291;52.010;4.446;2023-04-20T05:16:50;79364.63;;;-144.67;84.04
47522;BME280;32291;52.010;4.446;2023-04-20T05:17:52;79362.47;;;-144.67;83.93
47522;BME280;32291;52.010;4.446;2023-04-20T05:18:54;79364.63;;;-144.67;83.72
47522;BME280;32291;52.010;4.446;2023-04-20T05:19:56;79353.91;;;-144.67;83.97
47522;BME280;32291;52.010;4.446;2023-04-20T05:20:58;79349.63;;;-144.67;83.61